Time;durP1;ratioP1;P1;durP2;ratioP2;P2;SDS_P1;SDS_P2;PMS_P1;PMS_P2;Temp;Humidity;BMP_temperature;BMP_pressure;BME280_temperature;BME280_humidity;BME280_pressure;Samples;Min_cycle;Max_cycle;Signal;HPM_P1;HPM_P2
2023/09/07 00:00:10;;;;;;;3.47;2.75;;;;;;;16.37;100.00;97663.41;5130434;27;20395;-73
2023/09/07 00:02:37;;;;;;;5.20;2.92;;;;;;;16.34;100.00;97651.38;5131214;27;20406;-73
2023/09/07 00:05:04;;;;;;;3.40;2.90;;;;;;;16.32;100.00;97658.06;5131748;27;20470;-73
2023/09/07 00:07:32;;;;;;;6.40;2.50;;;;;;;16.28;100.00;97652.50;5131580;27;20386;-73
2023/09/07 00:09:58;;;;;;;4.78;3.20;;;;;;;16.26;100.00;97652.00;5131580;27;20402;-73
2023/09/07 00:12:24;;;;;;;4.57;2.90;;;;;;;16.24;100.00;97651.47;5130008;27;20407;-73
2023/09/07 00:14:51;;;;;;;4.68;3.15;;;;;;;16.19;100.00;97655.00;5131372;27;20430;-73
2023/09/07 00:17:19;;;;;;;4.50;3.08;;;;;;;16.17;100.00;97654.47;5131490;27;20478;-73
2023/09/07 00:19:48;;;;;;;3.87;3.10;;;;;;;16.18;100.00;97647.25;5130943;27;20902;-74
2023/09/07 00:22:16;;;;;;;5.43;3.17;;;;;;;16.12;100.00;97662.53;5131099;27;20744;-73
2023/09/07 00:24:42;;;;;;;3.63;2.90;;;;;;;16.10;100.00;97659.34;5131328;27;20416;-73
2023/09/07 00:27:11;;;;;;;4.15;3.38;;;;;;;16.07;100.00;97661.78;5131341;27;20477;-73
2023/09/07 00:29:38;;;;;;;4.32;3.30;;;;;;;16.02;100.00;97662.59;5131281;27;20879;-73
2023/09/07 00:32:05;;;;;;;3.10;2.80;;;;;;;16.01;100.00;97652.22;5131070;27;20428;-73
2023/09/07 00:34:32;;;;;;;5.18;3.35;;;;;;;15.98;100.00;97650.09;5129959;27;20405;-73
2023/09/07 00:37:00;;;;;;;3.08;2.75;;;;;;;15.93;100.00;97648.28;5131339;27;20403;-73
2023/09/07 00:39:26;;;;;;;4.60;2.97;;;;;;;15.90;100.00;97653.34;5130808;27;20397;-73
2023/09/07 00:41:52;;;;;;;4.60;2.80;;;;;;;15.87;100.00;97652.84;5122328;27;20429;-73
2023/09/07 00:44:18;;;;;;;2.83;2.45;;;;;;;15.85;100.00;97651.53;5131090;27;20409;-73
2023/09/07 00:46:45;;;;;;;4.30;2.80;;;;;;;15.81;100.00;97653.94;5130563;27;20394;-73
2023/09/07 00:49:12;;;;;;;3.70;3.00;;;;;;;15.77;100.00;97652.13;5131162;27;20474;-73
2023/09/07 00:51:40;;;;;;;3.60;2.75;;;;;;;15.76;100.00;97647.84;5130800;27;20391;-73
2023/09/07 00:54:06;;;;;;;3.22;2.53;;;;;;;15.74;100.00;97656.13;5131000;27;20426;-73
2023/09/07 00:56:32;;;;;;;3.33;2.83;;;;;;;15.74;100.00;97648.13;5130955;27;20406;-73
2023/09/07 00:59:00;;;;;;;4.38;3.25;;;;;;;15.72;100.00;97649.47;5131055;27;20398;-73
2023/09/07 01:01:26;;;;;;;4.47;3.17;;;;;;;15.71;100.00;97654.00;5130751;27;20406;-73
2023/09/07 01:03:52;;;;;;;4.68;2.67;;;;;;;15.69;100.00;97658.03;5130543;27;20877;-73
2023/09/07 01:06:26;;;;;;;3.05;2.70;;;;;;;15.69;100.00;97658.03;5129585;28;20413;-73
2023/09/07 01:08:57;;;;;;;3.78;2.50;;;;;;;15.68;100.00;97653.78;5130994;27;20880;-73
2023/09/07 01:11:23;;;;;;;3.15;2.85;;;;;;;15.66;100.00;97653.25;5130813;27;20748;-73
2023/09/07 01:13:51;;;;;;;7.57;3.53;;;;;;;15.62;100.00;97647.69;5130783;27;20395;-73
2023/09/07 01:16:20;;;;;;;4.25;2.95;;;;;;;15.60;100.00;97647.16;5130752;27;20451;-73
2023/09/07 01:18:47;;;;;;;3.53;2.80;;;;;;;15.59;100.00;97650.91;5130804;27;20903;-73
2023/09/07 01:21:14;;;;;;;4.28;2.90;;;;;;;15.57;100.00;97645.03;5130558;27;20402;-73
2023/09/07 01:23:43;;;;;;;3.70;2.80;;;;;;;15.57;100.00;97641.56;5130505;27;20418;-73
2023/09/07 01:26:11;;;;;;;4.85;2.75;;;;;;;15.56;100.00;97645.31;5130749;27;20418;-73
2023/09/07 01:28:37;;;;;;;3.67;3.00;;;;;;;15.53;100.00;97653.84;5130759;27;20473;-73
2023/09/07 01:31:04;;;;;;;6.63;3.08;;;;;;;15.51;100.00;97648.78;5129299;28;20391;-73
2023/09/07 01:33:30;;;;;;;4.88;2.97;;;;;;;15.47;100.00;97642.41;5130427;27;20403;-73
2023/09/07 01:35:57;;;;;;;4.15;3.15;;;;;;;15.45;100.00;97645.34;5130601;27;20459;-73
2023/09/07 01:38:23;;;;;;;4.82;3.45;;;;;;;15.41;100.00;97638.94;5129287;28;20406;-73
2023/09/07 01:40:51;;;;;;;4.57;3.20;;;;;;;15.37;100.00;97637.91;5130711;27;20410;-73
2023/09/07 01:43:17;;;;;;;5.97;3.38;;;;;;;15.33;100.00;97638.75;5129177;28;20394;-73
2023/09/07 01:45:43;;;;;;;4.50;3.47;;;;;;;15.30;100.00;97634.75;5130591;27;20825;-73
2023/09/07 01:48:10;;;;;;;3.80;3.00;;;;;;;15.28;100.00;97644.09;5130657;27;20409;-73
2023/09/07 01:50:36;;;;;;;4.28;3.30;;;;;;;15.23;100.00;97639.59;5129114;28;20498;-73
2023/09/07 01:53:04;;;;;;;3.45;2.92;;;;;;;15.20;100.00;97648.13;5128885;28;20759;-73
2023/09/07 01:55:32;;;;;;;4.85;3.45;;;;;;;15.18;100.00;97647.63;5130379;27;20399;-73
2023/09/07 01:58:00;;;;;;;4.20;3.30;;;;;;;15.18;100.00;97652.97;5131830;27;20899;-73
2023/09/07 02:00:27;;;;;;;3.42;2.95;;;;;;;15.17;100.00;97647.91;5134377;27;20944;-73
2023/09/07 02:02:53;;;;;;;4.13;3.20;;;;;;;15.16;100.00;97644.44;5134882;22;20429;-77
2023/09/07 02:05:21;;;;;;;3.60;2.75;;;;;;;15.15;100.00;97650.03;5052347;28;20404;-77
2023/09/07 02:07:49;;;;;;;3.97;2.88;;;;;;;15.14;100.00;97649.22;5074758;28;20400;-77
2023/09/07 02:10:16;;;;;;;3.95;3.40;;;;;;;15.10;100.00;97650.88;5074888;28;20422;-77
2023/09/07 02:12:42;;;;;;;4.88;3.40;;;;;;;15.05;100.00;97645.53;5074426;28;20465;-77
2023/09/07 02:15:10;;;;;;;5.90;3.42;;;;;;;15.05;100.00;97654.34;5073319;28;20403;-77
2023/09/07 02:17:37;;;;;;;4.10;3.15;;;;;;;15.05;100.00;97649.00;5073024;28;20395;-77
2023/09/07 02:20:10;;;;;;;5.57;3.38;;;;;;;15.04;100.00;97642.06;5073603;28;20519;-77
2023/09/07 02:22:36;;;;;;;5.25;3.58;;;;;;;15.05;100.00;97646.34;5072961;28;20430;-77
2023/09/07 02:25:05;;;;;;;6.43;3.35;;;;;;;15.04;100.00;97641.28;5073965;28;20912;-78
2023/09/07 02:27:31;;;;;;;4.27;3.50;;;;;;;15.03;100.00;97643.16;5073169;28;20403;-77
2023/09/07 02:29:58;;;;;;;5.00;3.40;;;;;;;15.01;100.00;97649.84;5073137;28;20396;-77
2023/09/07 02:32:25;;;;;;;5.60;3.93;;;;;;;14.98;100.00;97643.16;5057515;28;20405;-77
2023/09/07 02:34:51;;;;;;;5.80;3.58;;;;;;;14.96;100.00;97639.97;5065344;28;20419;-77
2023/09/07 02:37:18;;;;;;;3.95;3.28;;;;;;;14.93;100.00;97640.53;5055388;28;20413;-77
2023/09/07 02:39:44;;;;;;;5.55;3.83;;;;;;;14.91;100.00;97636.53;5065819;28;20403;-77
2023/09/07 02:42:10;;;;;;;4.40;3.23;;;;;;;14.90;100.00;97645.59;5067345;28;20499;-78
2023/09/07 02:44:37;;;;;;;4.30;3.33;;;;;;;14.87;100.00;97646.94;5071480;28;20400;-78
2023/09/07 02:47:04;;;;;;;5.18;3.47;;;;;;;14.86;100.00;97639.22;5073245;28;20396;-79
2023/09/07 02:49:34;;;;;;;4.50;3.35;;;;;;;14.84;100.00;97638.69;5072576;28;20399;-78
2023/09/07 02:52:00;;;;;;;4.97;3.72;;;;;;;14.83;100.00;97643.22;5057475;28;20403;-78
2023/09/07 02:54:27;;;;;;;5.03;3.60;;;;;;;14.82;100.00;97638.16;5072957;28;20400;-77
2023/09/07 02:56:53;;;;;;;4.38;3.60;;;;;;;14.82;100.00;97641.63;5070704;28;20470;-78
2023/09/07 02:59:19;;;;;;;4.90;3.35;;;;;;;14.81;100.00;97639.25;5071041;28;20447;-78
2023/09/07 03:01:46;;;;;;;6.40;3.83;;;;;;;14.78;100.00;97635.25;5074519;28;20877;-78
2023/09/07 03:04:12;;;;;;;4.30;3.70;;;;;;;14.76;100.00;97632.06;5065122;28;20473;-77
2023/09/07 03:06:39;;;;;;;5.18;3.67;;;;;;;14.74;100.00;97623.53;5072145;28;20502;-77
2023/09/07 03:09:08;;;;;;;4.05;3.30;;;;;;;14.71;100.00;97638.22;5071926;28;20873;-77
2023/09/07 03:11:36;;;;;;;10.25;3.83;;;;;;;14.68;100.00;97635.28;5072279;28;20789;-76
2023/09/07 03:14:02;;;;;;;4.93;3.60;;;;;;;14.64;100.00;97632.38;5072195;28;20533;-77
2023/09/07 03:16:30;;;;;;;5.07;3.58;;;;;;;14.62;100.00;97639.03;5063469;28;20409;-77
2023/09/07 03:18:56;;;;;;;3.95;3.30;;;;;;;14.59;100.00;97629.69;5056620;28;20404;-77
2023/09/07 03:21:25;;;;;;;5.97;4.00;;;;;;;14.58;100.00;97632.66;5072506;28;20411;-77
2023/09/07 03:23:53;;;;;;;5.40;3.77;;;;;;;14.56;100.00;97632.13;5072979;28;20400;-77
2023/09/07 03:26:19;;;;;;;4.55;3.40;;;;;;;14.55;100.00;97633.97;5056947;28;20416;-77
2023/09/07 03:28:45;;;;;;;6.20;4.30;;;;;;;14.53;100.00;97635.31;5071680;28;20847;-77
2023/09/07 03:31:12;;;;;;;4.20;3.50;;;;;;;14.51;100.00;97632.13;5072612;28;20781;-77
2023/09/07 03:33:38;;;;;;;4.97;3.85;;;;;;;14.49;100.00;97626.28;5072163;28;20396;-78
2023/09/07 03:36:04;;;;;;;4.50;3.67;;;;;;;14.47;100.00;97633.72;5071993;28;20450;-77
2023/09/07 03:38:31;;;;;;;5.60;3.65;;;;;;;14.45;100.00;97633.19;5072381;28;20408;-77
2023/09/07 03:40:58;;;;;;;5.60;3.57;;;;;;;14.43;100.00;97632.69;5068075;28;20508;-78
2023/09/07 03:43:24;;;;;;;5.32;3.67;;;;;;;14.36;100.00;97624.91;5059504;28;20403;-78
2023/09/07 03:45:51;;;;;;;6.50;3.87;;;;;;;14.34;100.00;97622.53;5072087;28;20881;-78
2023/09/07 03:48:17;;;;;;;6.93;3.65;;;;;;;14.31;100.00;97631.06;5072211;28;20406;-78
2023/09/07 03:50:43;;;;;;;4.22;3.83;;;;;;;14.28;100.00;97626.25;5053748;28;20411;-78
2023/09/07 03:53:09;;;;;;;4.93;3.22;;;;;;;14.30;100.00;97628.66;5065674;28;20433;-78
2023/09/07 03:55:41;;;;;;;5.80;3.70;;;;;;;14.31;100.00;97632.91;5061215;28;20408;-78
2023/09/07 03:58:09;;;;;;;5.07;3.80;;;;;;;14.29;100.00;97625.19;5071764;28;20395;-78
2023/09/07 04:00:39;;;;;;;5.32;3.58;;;;;;;14.29;100.00;97625.19;5062181;28;20401;-77
2023/09/07 04:03:05;;;;;;;5.32;3.80;;;;;;;14.28;100.00;97623.59;5064821;28;20399;-77
2023/09/07 04:05:31;;;;;;;4.47;3.47;;;;;;;14.29;100.00;97621.72;5071472;28;20392;-77
2023/09/07 04:07:58;;;;;;;5.25;3.65;;;;;;;14.28;100.00;97625.50;5071572;28;20813;-77
2023/09/07 04:10:24;;;;;;;4.13;3.15;;;;;;;14.28;100.00;97620.16;5064928;28;20409;-78
2023/09/07 04:12:50;;;;;;;4.95;3.53;;;;;;;14.24;100.00;97625.22;5073552;28;20391;-78
2023/09/07 04:15:18;;;;;;;5.22;3.92;;;;;;;14.20;100.00;97620.69;5071537;28;20960;-76
2023/09/07 04:17:44;;;;;;;5.30;3.60;;;;;;;14.18;100.00;97626.28;5071275;28;20854;-77
2023/09/07 04:20:13;;;;;;;4.63;3.75;;;;;;;14.16;100.00;97628.41;5070690;28;20399;-77
2023/09/07 04:22:40;;;;;;;5.30;3.88;;;;;;;14.15;100.00;97628.69;5070818;28;20411;-77
2023/09/07 04:25:07;;;;;;;5.90;4.30;;;;;;;14.14;100.00;97621.75;5066048;28;20405;-77
2023/09/07 04:27:33;;;;;;;5.13;4.00;;;;;;;14.11;100.00;97625.75;5050407;28;20408;-77
2023/09/07 04:29:59;;;;;;;5.00;3.70;;;;;;;14.10;100.00;97618.03;5070946;28;20475;-77
2023/09/07 04:32:27;;;;;;;5.07;3.55;;;;;;;14.07;100.00;97619.38;5050389;28;20401;-77
2023/09/07 04:34:54;;;;;;;5.47;3.73;;;;;;;14.06;100.00;97617.00;5053564;28;20408;-77
2023/09/07 04:37:21;;;;;;;7.13;4.50;;;;;;;14.02;100.00;97618.56;5056256;28;20421;-77
2023/09/07 04:39:49;;;;;;;4.88;3.80;;;;;;;14.00;100.00;97623.34;5058440;28;20401;-78
2023/09/07 04:42:15;;;;;;;4.13;3.27;;;;;;;13.95;100.00;97622.31;5060992;28;20525;-79
2023/09/07 04:44:41;;;;;;;3.80;3.30;;;;;;;13.94;100.00;97620.72;5064053;28;20439;-78
2023/09/07 04:47:07;;;;;;;6.93;4.40;;;;;;;13.92;100.00;97616.72;5051651;28;20420;-78
2023/09/07 04:49:35;;;;;;;5.03;3.80;;;;;;;13.91;100.00;97623.88;5043175;28;20412;-76
2023/09/07 04:52:01;;;;;;;7.68;4.38;;;;;;;13.89;100.00;97615.41;5056668;28;20409;-77
2023/09/07 04:54:28;;;;;;;5.47;3.85;;;;;;;13.88;100.00;97626.31;5051205;28;20402;-76
2023/09/07 04:56:54;;;;;;;5.13;4.25;;;;;;;13.89;100.00;97631.38;5053916;28;20853;-77
2023/09/07 04:59:20;;;;;;;6.85;4.53;;;;;;;13.88;100.00;97627.09;5052586;28;20406;-77
2023/09/07 05:01:46;;;;;;;5.35;4.25;;;;;;;13.88;100.00;97628.97;5053545;28;20922;-77
2023/09/07 05:04:12;;;;;;;5.05;3.85;;;;;;;13.87;100.00;97630.81;5054782;28;20844;-79
2023/09/07 05:06:41;;;;;;;5.20;3.92;;;;;;;13.88;100.00;97631.63;5053933;28;20405;-77
2023/09/07 05:09:07;;;;;;;9.32;4.47;;;;;;;13.87;100.00;97635.34;5055564;28;20405;-77
2023/09/07 05:11:34;;;;;;;7.35;4.55;;;;;;;13.88;100.00;97634.28;5059293;28;20818;-79
2023/09/07 05:14:01;;;;;;;5.88;4.53;;;;;;;13.88;100.00;97640.41;5052035;28;20902;-78
2023/09/07 05:16:28;;;;;;;7.18;4.55;;;;;;;13.89;100.00;97647.34;5059209;28;20395;-78
2023/09/07 05:18:54;;;;;;;4.97;4.10;;;;;;;13.90;100.00;97648.13;5062728;28;20443;-78
2023/09/07 05:21:20;;;;;;;6.95;4.53;;;;;;;13.89;100.00;97647.34;5051654;28;20413;-78
2023/09/07 05:23:47;;;;;;;5.47;4.07;;;;;;;13.88;100.00;97644.94;5060355;28;20500;-78
2023/09/07 05:26:14;;;;;;;4.50;3.90;;;;;;;13.89;100.00;97650.00;5051650;28;20401;-78
2023/09/07 05:28:43;;;;;;;6.53;4.55;;;;;;;13.90;100.00;97656.91;5054392;28;20409;-78
2023/09/07 05:31:09;;;;;;;5.53;4.20;;;;;;;13.91;100.00;97660.34;5055776;28;20406;-78
2023/09/07 05:33:36;;;;;;;5.22;4.03;;;;;;;13.94;100.00;97660.63;5057026;28;20409;-78
2023/09/07 05:36:02;;;;;;;6.13;4.30;;;;;;;13.94;100.00;97660.63;5037512;28;20417;-78
2023/09/07 05:38:28;;;;;;;5.88;4.30;;;;;;;13.97;100.00;97667.28;5054931;28;20490;-77
2023/09/07 05:40:56;;;;;;;4.57;3.70;;;;;;;14.01;100.00;97664.88;5061407;28;20488;-78
2023/09/07 05:43:22;;;;;;;4.72;4.00;;;;;;;14.03;100.00;97668.09;5061592;28;20421;-77
2023/09/07 05:45:48;;;;;;;7.22;4.45;;;;;;;14.05;100.00;97660.66;5059183;28;20805;-78
2023/09/07 05:48:17;;;;;;;5.72;3.90;;;;;;;14.08;100.00;97660.91;5053672;28;20957;-77
2023/09/07 05:50:44;;;;;;;5.78;4.50;;;;;;;14.11;100.00;97660.38;5055100;28;20419;-78
2023/09/07 05:53:10;;;;;;;4.97;3.63;;;;;;;14.15;100.00;97660.63;5062634;28;20409;-78
2023/09/07 05:55:36;;;;;;;6.10;4.03;;;;;;;14.19;100.00;97662.50;5055321;28;21082;-78
2023/09/07 05:58:06;;;;;;;5.50;3.97;;;;;;;14.23;100.00;97663.56;5053054;28;20441;-78
2023/09/07 06:00:33;;;;;;;5.80;4.38;;;;;;;14.28;100.00;97665.44;5061170;28;20403;-78
2023/09/07 06:03:00;;;;;;;4.85;3.95;;;;;;;14.33;100.00;97665.41;5073210;28;20411;-78
2023/09/07 06:05:26;;;;;;;4.63;3.75;;;;;;;14.39;100.00;97660.91;5072646;28;20396;-78
2023/09/07 06:07:53;;;;;;;4.40;3.92;;;;;;;14.45;100.00;97665.94;5056391;28;20946;-78
2023/09/07 06:10:19;;;;;;;5.78;3.88;;;;;;;14.51;100.00;97658.78;5073685;28;20873;-78
2023/09/07 06:12:45;;;;;;;4.13;3.25;;;;;;;14.56;100.00;97666.75;5073552;28;20404;-78
2023/09/07 06:15:13;;;;;;;5.15;3.75;;;;;;;14.60;100.00;97657.13;5073931;28;20408;-78
2023/09/07 06:17:39;;;;;;;4.25;3.65;;;;;;;14.66;100.00;97664.03;5055735;28;20411;-78
2023/09/07 06:20:06;;;;;;;6.97;3.75;;;;;;;14.70;100.00;97663.25;5073808;28;20495;-78
2023/09/07 06:22:33;;;;;;;4.97;3.95;;;;;;;14.76;100.00;97665.91;5075523;28;20964;-77
2023/09/07 06:24:59;;;;;;;5.78;3.65;;;;;;;14.80;100.00;97664.31;5060019;28;20401;-77
2023/09/07 06:27:25;;;;;;;5.15;4.00;;;;;;;14.84;100.00;97660.00;5069505;28;20399;-77
2023/09/07 06:29:52;;;;;;;4.65;3.92;;;;;;;14.90;100.00;97657.06;5073715;28;20396;-78
2023/09/07 06:32:19;;;;;;;5.18;4.10;;;;;;;14.97;100.00;97662.91;5074135;28;20392;-78
2023/09/07 06:34:45;;;;;;;8.07;4.75;;;;;;;15.05;100.00;97657.00;5071500;28;20399;-78
2023/09/07 06:37:12;;;;;;;6.38;4.40;;;;;;;15.17;100.00;97658.56;5068508;28;20404;-78
2023/09/07 06:39:38;;;;;;;6.22;4.05;;;;;;;15.27;100.00;97658.50;5074618;28;20400;-78
2023/09/07 06:42:05;;;;;;;6.82;4.45;;;;;;;15.36;100.00;97657.66;5073740;28;20417;-77
2023/09/07 06:44:33;;;;;;;5.78;4.15;;;;;;;15.47;100.00;97663.75;5072692;28;20426;-77
2023/09/07 06:46:59;;;;;;;5.10;4.05;;;;;;;15.57;100.00;97655.69;5066228;28;20427;-77
2023/09/07 06:49:29;;;;;;;5.63;4.43;;;;;;;15.67;100.00;97661.00;5055634;28;20415;-77
2023/09/07 06:51:55;;;;;;;7.30;4.93;;;;;;;15.77;100.00;97654.78;5072522;28;20406;-77
2023/09/07 06:54:22;;;;;;;6.03;4.18;;;;;;;15.87;100.00;97663.50;5072914;28;20488;-77
2023/09/07 06:56:48;;;;;;;5.43;4.20;;;;;;;15.96;100.00;97663.72;5072832;28;20496;-77
2023/09/07 06:59:14;;;;;;;10.75;5.30;;;;;;;16.04;100.00;97668.47;5072719;28;20408;-78
2023/09/07 07:01:40;;;;;;;6.20;4.13;;;;;;;16.13;100.00;97671.34;5072541;28;20407;-77
2023/09/07 07:04:08;;;;;;;7.13;4.30;;;;;;;16.20;100.00;97672.63;5073514;28;20467;-77
2023/09/07 07:06:35;;;;;;;5.65;4.20;;;;;;;16.29;100.00;97672.81;5072534;28;20471;-77
2023/09/07 07:09:02;;;;;;;5.47;4.35;;;;;;;16.37;100.00;97671.41;5073548;28;20408;-78
2023/09/07 07:11:28;;;;;;;6.78;4.97;;;;;;;16.47;100.00;97682.78;5058927;28;20911;-78
2023/09/07 07:13:54;;;;;;;6.65;5.03;;;;;;;16.55;100.00;97684.84;5075071;28;20404;-78
2023/09/07 07:16:20;;;;;;;6.53;4.75;;;;;;;16.66;100.00;97685.59;5075065;28;20418;-78
2023/09/07 07:18:47;;;;;;;7.65;4.00;;;;;;;16.77;100.00;97680.94;5075120;28;20441;-78
2023/09/07 07:21:13;;;;;;;5.85;4.30;;;;;;;16.87;100.00;97684.28;5041847;28;20397;-77
2023/09/07 07:23:40;;;;;;;6.57;3.75;;;;;;;17.00;100.00;97685.50;5072860;28;20408;-78
2023/09/07 07:26:08;;;;;;;6.53;3.78;;;;;;;17.13;100.00;97684.03;5075463;28;20395;-78
2023/09/07 07:28:35;;;;;;;4.50;3.78;;;;;;;17.25;100.00;97674.50;5075645;28;20396;-78
2023/09/07 07:31:09;;;;;;;6.60;3.97;;;;;;;17.39;100.00;97682.63;5062264;28;20906;-78
2023/09/07 07:33:35;;;;;;;5.03;3.70;;;;;;;17.53;100.00;97682.69;5055196;28;20413;-79
2023/09/07 07:36:02;;;;;;;5.95;3.40;;;;;;;17.67;100.00;97680.94;5071728;28;20976;-77
2023/09/07 07:38:28;;;;;;;5.10;3.80;;;;;;;17.81;100.00;97681.81;5067344;28;20429;-78
2023/09/07 07:40:55;;;;;;;6.65;3.67;;;;;;;17.94;100.00;97677.59;5064153;28;20943;-77
2023/09/07 07:43:22;;;;;;;6.23;3.93;;;;;;;18.05;100.00;97679.81;5071772;28;20396;-77
2023/09/07 07:45:48;;;;;;;7.00;4.15;;;;;;;18.16;100.00;97683.94;5071501;28;20869;-77
2023/09/07 07:48:14;;;;;;;5.70;4.15;;;;;;;18.25;100.00;97684.09;5072297;28;20407;-77
2023/09/07 07:50:43;;;;;;;5.37;4.13;;;;;;;18.36;100.00;97687.38;5071347;28;20430;-77
2023/09/07 07:53:09;;;;;;;5.45;3.88;;;;;;;18.46;100.00;97687.22;5070988;28;20479;-78
2023/09/07 07:55:38;;;;;;;5.72;3.97;;;;;;;18.58;100.00;97682.19;5069590;28;20414;-78
2023/09/07 07:58:07;;;;;;;5.80;4.70;;;;;;;18.68;100.00;97683.91;5056138;28;20400;-76
2023/09/07 08:00:34;;;;;;;5.53;4.35;;;;;;;18.76;100.00;97683.22;5071147;28;20452;-77
2023/09/07 08:03:05;;;;;;;8.43;4.28;;;;;;;18.85;100.00;97679.56;5071544;28;20974;-78
2023/09/07 08:05:33;;;;;;;5.47;4.20;;;;;;;18.95;100.00;97679.34;5071709;28;20813;-77
2023/09/07 08:07:59;;;;;;;4.97;3.92;;;;;;;19.05;100.00;97678.38;5071626;28;20486;-77
2023/09/07 08:10:26;;;;;;;5.07;3.75;;;;;;;19.12;100.00;97680.66;5072221;28;20440;-78
2023/09/07 08:12:54;;;;;;;4.43;3.47;;;;;;;19.20;100.00;97679.97;5039453;28;20400;-77
2023/09/07 08:15:24;;;;;;;3.85;3.25;;;;;;;19.30;100.00;97677.88;5071723;28;20465;-77
2023/09/07 08:17:51;;;;;;;4.20;3.72;;;;;;;19.37;100.00;97669.41;5072036;28;20491;-78
2023/09/07 08:20:17;;;;;;;6.32;4.70;;;;;;;19.44;100.00;97661.75;5071802;28;20404;-77
2023/09/07 08:22:45;;;;;;;7.03;4.13;;;;;;;19.54;100.00;97663.47;5053224;28;20982;-77
2023/09/07 08:25:15;;;;;;;5.15;4.10;;;;;;;19.64;100.00;97663.22;5071772;28;20408;-77
2023/09/07 08:27:45;;;;;;;5.97;4.72;;;;;;;19.74;100.00;97660.31;5045294;28;20936;-78
2023/09/07 08:30:15;;;;;;;5.28;3.90;;;;;;;19.84;100.00;97665.47;5072070;28;20400;-77
2023/09/07 08:32:44;;;;;;;4.88;3.78;;;;;;;19.96;100.00;97671.09;5072153;28;20484;-78
2023/09/07 08:35:13;;;;;;;4.60;3.67;;;;;;;20.09;100.00;97670.22;5066914;28;20397;-78
2023/09/07 08:37:39;;;;;;;4.28;3.65;;;;;;;20.22;100.00;97665.09;5035758;28;20473;-78
2023/09/07 08:40:07;;;;;;;5.97;3.83;;;;;;;20.31;100.00;97674.00;5068176;28;20450;-79
2023/09/07 08:42:36;;;;;;;8.27;5.00;;;;;;;20.37;100.00;97672.84;5072370;28;20820;-78
2023/09/07 08:45:06;;;;;;;5.28;4.15;;;;;;;20.45;100.00;97675.53;5074581;28;20400;-78
2023/09/07 08:47:36;;;;;;;5.38;4.60;;;;;;;20.54;100.00;97678.28;5059737;28;20405;-79
2023/09/07 08:50:08;;;;;;;5.07;3.88;;;;;;;20.64;100.00;97669.97;5065700;28;20436;-78
2023/09/07 08:52:35;;;;;;;5.85;4.30;;;;;;;20.68;100.00;97670.94;5072573;28;20392;-78
2023/09/07 08:55:04;;;;;;;4.28;3.58;;;;;;;20.74;100.00;97668.91;5062361;28;20439;-79
2023/09/07 08:57:31;;;;;;;4.78;4.10;;;;;;;20.79;100.00;97682.22;5063035;28;20793;-78
2023/09/07 08:59:58;;;;;;;6.65;4.10;;;;;;;20.86;100.00;97677.19;5066139;28;20395;-79
2023/09/07 09:02:24;;;;;;;5.93;3.72;;;;;;;20.94;100.00;97675.63;5066698;28;20902;-78
2023/09/07 09:04:52;;;;;;;3.92;3.40;;;;;;;21.01;100.00;97674.09;5066001;28;20480;-79
2023/09/07 09:07:20;;;;;;;4.88;3.90;;;;;;;21.09;100.00;97681.41;5065977;28;20425;-79
2023/09/07 09:09:47;;;;;;;4.97;3.50;;;;;;;21.21;100.00;97678.13;5067214;28;20414;-78
2023/09/07 09:12:13;;;;;;;3.83;3.30;;;;;;;21.30;100.00;97673.56;5072522;28;20395;-79
2023/09/07 09:14:43;;;;;;;4.07;3.53;;;;;;;21.39;100.00;97676.28;5061607;28;20419;-79
2023/09/07 09:17:12;;;;;;;4.97;3.95;;;;;;;21.46;100.00;97673.91;5063129;28;20420;-78
2023/09/07 09:19:39;;;;;;;8.70;5.30;;;;;;;21.48;100.00;97677.91;5071913;28;20483;-80
2023/09/07 09:22:06;;;;;;;4.63;3.78;;;;;;;21.63;100.00;97673.94;5078739;28;20418;-79
2023/09/07 09:24:34;;;;;;;5.00;4.20;;;;;;;21.77;100.00;97668.41;5071621;28;20402;-79
2023/09/07 09:27:01;;;;;;;4.90;3.50;;;;;;;21.93;100.00;97673.03;5057766;28;20397;-78
2023/09/07 09:29:27;;;;;;;4.47;3.70;;;;;;;22.09;100.00;97662.59;5057218;28;20401;-77
2023/09/07 09:31:54;;;;;;;4.80;3.60;;;;;;;22.29;100.00;97661.91;5058557;28;20394;-77
2023/09/07 09:34:23;;;;;;;4.68;3.83;;;;;;;22.57;100.00;97658.81;5057255;28;20911;-78
2023/09/07 09:36:50;;;;;;;4.10;3.42;;;;;;;22.85;100.00;97667.34;5067957;28;20407;-78
2023/09/07 09:39:23;;;;;;;3.97;3.53;;;;;;;23.17;100.00;97672.91;5076926;28;20754;-77
2023/09/07 09:41:52;;;;;;;4.55;3.53;;;;;;;23.48;100.00;97661.81;5057926;28;20420;-78
2023/09/07 09:44:25;;;;;;;5.97;3.60;;;;;;;23.73;100.00;97657.34;5067034;28;20411;-78
2023/09/07 09:46:54;;;;;;;4.00;2.90;;;;;;;23.98;100.00;97655.56;5067509;28;20412;-77
2023/09/07 09:49:21;;;;;;;3.90;3.25;;;;;;;24.21;100.00;97653.28;5072187;28;20437;-78
2023/09/07 09:51:50;;;;;;;5.40;3.70;;;;;;;24.37;100.00;97640.72;5066874;28;20924;-77
2023/09/07 09:54:18;;;;;;;4.13;3.20;;;;;;;24.49;100.00;97648.88;5049927;28;20402;-77
2023/09/07 09:56:45;;;;;;;3.65;3.28;;;;;;;24.56;100.00;97649.13;5075433;28;20423;-76
2023/09/07 09:59:13;;;;;;;3.67;3.20;;;;;;;24.60;100.00;97652.72;5075876;28;20398;-77
2023/09/07 10:01:44;;;;;;;5.10;3.33;;;;;;;24.61;100.00;97648.91;5074220;28;20407;-79
2023/09/07 10:04:12;;;;;;;5.00;3.72;;;;;;;24.64;100.00;97648.25;5075418;28;20845;-78
2023/09/07 10:06:39;;;;;;;7.20;4.97;;;;;;;24.68;100.00;97651.06;5074602;28;20392;-79
2023/09/07 10:09:06;;;;;;;7.67;5.23;;;;;;;24.70;100.00;97651.50;5062855;28;20411;-77
2023/09/07 10:11:34;;;;;;;4.65;3.75;;;;;;;24.71;100.00;97650.41;5054198;28;20430;-78
2023/09/07 10:14:03;;;;;;;6.65;3.85;;;;;;;24.68;100.00;97649.13;5076261;28;20904;-79
2023/09/07 10:16:42;;;;;;;4.25;3.60;;;;;;;24.64;100.00;97656.38;5074735;28;20661;-78
2023/09/07 10:19:15;;;;;;;5.10;3.58;;;;;;;24.62;100.00;97647.78;5056201;28;20406;-77
2023/09/07 10:21:42;;;;;;;5.75;3.65;;;;;;;24.59;100.00;97644.94;5074878;28;20411;-78
2023/09/07 10:24:08;;;;;;;5.22;3.70;;;;;;;24.59;100.00;97643.03;5075270;28;20407;-78
2023/09/07 10:26:35;;;;;;;5.77;3.47;;;;;;;24.60;100.00;97638.41;5058758;28;20401;-77
2023/09/07 10:29:03;;;;;;;4.47;3.70;;;;;;;24.66;100.00;97651.38;5061074;28;20872;-78
2023/09/07 10:31:31;;;;;;;3.92;3.38;;;;;;;24.69;100.00;97629.06;5062341;28;20402;-77
2023/09/07 10:34:08;;;;;;;5.03;3.93;;;;;;;24.71;100.00;97630.66;5067726;28;20418;-77
2023/09/07 10:36:35;;;;;;;8.20;4.70;;;;;;;24.51;100.00;97633.09;5074160;28;20406;-77
2023/09/07 10:39:01;;;;;;;5.80;4.30;;;;;;;24.54;100.00;97624.31;5072207;28;20395;-77
2023/09/07 10:41:28;;;;;;;4.75;3.33;;;;;;;24.62;100.00;97628.03;5065484;28;20392;-77
2023/09/07 10:43:55;;;;;;;4.95;3.60;;;;;;;24.63;100.00;97625.00;5074796;28;20874;-78
2023/09/07 10:46:22;;;;;;;4.35;3.65;;;;;;;24.71;100.00;97620.63;5064277;28;20397;-78
2023/09/07 10:48:51;;;;;;;5.63;4.00;;;;;;;24.65;100.00;97627.38;5065612;28;20834;-77
2023/09/07 10:51:18;;;;;;;4.95;3.95;;;;;;;24.62;100.00;97617.22;5068685;28;20401;-78
2023/09/07 10:53:44;;;;;;;5.20;3.65;;;;;;;24.67;100.00;97611.56;5062694;28;20489;-78
2023/09/07 10:56:11;;;;;;;4.93;3.73;;;;;;;24.77;100.00;97616.56;5060441;28;20439;-77
2023/09/07 10:58:43;;;;;;;6.32;4.40;;;;;;;24.83;100.00;97617.91;5076029;28;20396;-78
2023/09/07 11:01:10;;;;;;;5.50;3.72;;;;;;;24.98;100.00;97611.84;5072346;28;20404;-77
2023/09/07 11:03:37;;;;;;;4.25;3.70;;;;;;;25.09;100.00;97612.19;5072293;28;20497;-78
2023/09/07 11:06:09;;;;;;;4.68;3.58;;;;;;;25.21;100.00;97606.75;5072766;28;20408;-77
2023/09/07 11:08:35;;;;;;;5.43;4.03;;;;;;;25.28;100.00;97603.47;5072536;28;20396;-78
2023/09/07 11:11:02;;;;;;;7.65;4.35;;;;;;;25.26;100.00;97606.50;5073320;28;20400;-77
2023/09/07 11:13:29;;;;;;;4.65;4.03;;;;;;;25.36;100.00;97608.75;5072785;28;20870;-78
2023/09/07 11:15:56;;;;;;;4.60;4.00;;;;;;;25.42;100.00;97610.09;5072914;28;20461;-77
2023/09/07 11:18:22;;;;;;;4.72;3.45;;;;;;;25.50;100.00;97611.09;5073496;28;20402;-78
2023/09/07 11:20:50;;;;;;;6.20;4.60;;;;;;;25.54;100.00;97603.88;5072830;28;20466;-78
2023/09/07 11:23:18;;;;;;;6.72;4.30;;;;;;;25.55;100.00;97596.53;5054170;28;20415;-78